sensor_id;sensor_type;location;lat;lon;timestamp;pressure;altitude;pressure_sealevel;temperature;humidity
17383;BME280;8809;51.892;8.384;2023-12-20T00:02:08;100279.78;;;8.71;100.00
17383;BME280;8809;51.892;8.384;2023-12-20T00:04:35;100278.97;;;8.72;100.00
17383;BME280;8809;51.892;8.384;2023-12-20T00:07:02;100277.31;;;8.74;100.00
17383;BME280;8809;51.892;8.384;2023-12-20T00:09:29;100272.59;;;8.66;100.00
17383;BME280;8809;51.892;8.384;2023-12-20T00:11:56;100286.63;;;8.69;100.00
17383;BME280;8809;51.892;8.384;2023-12-20T00:14:23;100287.25;;;8.64;100.00
17383;BME280;8809;51.892;8.384;2023-12-20T00:16:51;100285.06;;;8.53;100.00
17383;BME280;8809;51.892;8.384;2023-12-20T00:19:18;100286.84;;;8.54;100.00
17383;BME280;8809;51.892;8.384;2023-12-20T00:21:45;100287.53;;;8.50;100.00
17383;BME280;8809;51.892;8.384;2023-12-20T00:24:12;100290.78;;;8.66;100.00
17383;BME280;8809;51.892;8.384;2023-12-20T00:26:39;100287.78;;;8.76;100.00
17383;BME280;8809;51.892;8.384;2023-12-20T00:29:06;100295.56;;;8.76;100.00
17383;BME280;8809;51.892;8.384;2023-12-20T00:31:33;100297.91;;;8.70;100.00
17383;BME280;8809;51.892;8.384;2023-12-20T00:34:01;100297.91;;;8.70;100.00
17383;BME280;8809;51.892;8.384;2023-12-20T00:36:28;100300.25;;;8.64;100.00
17383;BME280;8809;51.892;8.384;2023-12-20T00:38:55;100298.75;;;8.69;100.00
17383;BME280;8809;51.892;8.384;2023-12-20T00:41:22;100310.59;;;8.62;100.00
17383;BME280;8809;51.892;8.384;2023-12-20T00:43:49;100304.84;;;8.50;100.00
17383;BME280;8809;51.892;8.384;2023-12-20T00:46:16;100304.66;;;8.45;100.00
17383;BME280;8809;51.892;8.384;2023-12-20T00:48:43;100306.69;;;8.33;100.00
17383;BME280;8809;51.892;8.384;2023-12-20T00:51:12;100299.41;;;8.26;100.00
17383;BME280;8809;51.892;8.384;2023-12-20T00:53:39;100306.91;;;8.20;100.00
17383;BME280;8809;51.892;8.384;2023-12-20T00:56:06;100299.88;;;8.00;100.00
17383;BME280;8809;51.892;8.384;2023-12-20T00:58:33;100305.66;;;8.12;100.00
17383;BME280;8809;51.892;8.384;2023-12-20T01:01:00;100308.47;;;8.16;100.00
17383;BME280;8809;51.892;8.384;2023-12-20T01:03:27;100301.53;;;8.17;100.00
17383;BME280;8809;51.892;8.384;2023-12-20T01:05:54;100311.38;;;8.05;100.00
17383;BME280;8809;51.892;8.384;2023-12-20T01:08:23;100310.28;;;8.00;100.00
17383;BME280;8809;51.892;8.384;2023-12-20T01:10:50;100307.34;;;8.11;100.00
17383;BME280;8809;51.892;8.384;2023-12-20T01:13:17;100306.13;;;8.03;100.00
17383;BME280;8809;51.892;8.384;2023-12-20T01:15:43;100308.78;;;8.05;100.00
17383;BME280;8809;51.892;8.384;2023-12-20T01:18:09;100308.47;;;7.99;100.00
17383;BME280;8809;51.892;8.384;2023-12-20T01:20:36;100308.63;;;8.02;100.00
17383;BME280;8809;51.892;8.384;2023-12-20T01:23:03;100315.47;;;8.00;100.00
17383;BME280;8809;51.892;8.384;2023-12-20T01:25:32;100320.97;;;8.06;100.00
17383;BME280;8809;51.892;8.384;2023-12-20T01:27:59;100324.50;;;8.08;100.00
17383;BME280;8809;51.892;8.384;2023-12-20T01:30:25;100314.72;;;8.02;100.00
17383;BME280;8809;51.892;8.384;2023-12-20T01:32:52;100313.84;;;8.02;100.00
17383;BME280;8809;51.892;8.384;2023-12-20T01:35:19;100318.84;;;7.97;100.00
17383;BME280;8809;51.892;8.384;2023-12-20T01:37:46;100327.19;;;8.09;100.00
17383;BME280;8809;51.892;8.384;2023-12-20T01:40:13;100318.22;;;8.03;100.00
17383;BME280;8809;51.892;8.384;2023-12-20T01:42:42;100319.09;;;8.03;100.00
17383;BME280;8809;51.892;8.384;2023-12-20T01:45:09;100327.78;;;8.04;100.00
17383;BME280;8809;51.892;8.384;2023-12-20T01:47:36;100335.66;;;8.05;100.00
17383;BME280;8809;51.892;8.384;2023-12-20T01:50:04;100339.66;;;7.99;100.00
17383;BME280;8809;51.892;8.384;2023-12-20T01:52:34;100342.84;;;8.11;100.00
17383;BME280;8809;51.892;8.384;2023-12-20T01:55:01;100334.78;;;8.05;100.00
17383;BME280;8809;51.892;8.384;2023-12-20T01:57:30;100335.59;;;8.04;100.00
17383;BME280;8809;51.892;8.384;2023-12-20T01:59:58;100330.78;;;7.94;100.00
17383;BME280;8809;51.892;8.384;2023-12-20T02:02:28;100335.81;;;7.91;100.00
17383;BME280;8809;51.892;8.384;2023-12-20T02:04:56;100330.19;;;7.81;100.00
17383;BME280;8809;51.892;8.384;2023-12-20T02:07:23;100336.09;;;7.79;100.00
17383;BME280;8809;51.892;8.384;2023-12-20T02:09:50;100329.00;;;7.75;100.00
17383;BME280;8809;51.892;8.384;2023-12-20T02:12:17;100312.47;;;7.73;100.00
17383;BME280;8809;51.892;8.384;2023-12-20T02:14:48;100320.97;;;7.70;100.00
17383;BME280;8809;51.892;8.384;2023-12-20T02:17:16;100320.09;;;7.70;100.00
17383;BME280;8809;51.892;8.384;2023-12-20T02:19:44;100312.97;;;7.83;100.00
17383;BME280;8809;51.892;8.384;2023-12-20T02:22:12;100308.16;;;7.73;100.00
17383;BME280;8809;51.892;8.384;2023-12-20T02:24:39;100296.13;;;7.75;100.00
17383;BME280;8809;51.892;8.384;2023-12-20T02:27:07;100300.91;;;7.66;100.00
17383;BME280;8809;51.892;8.384;2023-12-20T02:29:34;100302.44;;;7.63;100.00
17383;BME280;8809;51.892;8.384;2023-12-20T02:32:01;100306.38;;;7.55;100.00
17383;BME280;8809;51.892;8.384;2023-12-20T02:34:29;100299.13;;;7.65;100.00
17383;BME280;8809;51.892;8.384;2023-12-20T02:36:55;100300.09;;;7.50;100.00
17383;BME280;8809;51.892;8.384;2023-12-20T02:39:24;100310.16;;;7.43;100.00
17383;BME280;8809;51.892;8.384;2023-12-20T02:41:50;100307.09;;;7.34;100.00
17383;BME280;8809;51.892;8.384;2023-12-20T02:44:17;100295.38;;;7.25;100.00
17383;BME280;8809;51.892;8.384;2023-12-20T02:46:44;100301.84;;;7.33;100.00
17383;BME280;8809;51.892;8.384;2023-12-20T02:49:11;100304.59;;;7.36;100.00
17383;BME280;8809;51.892;8.384;2023-12-20T02:51:38;100303.00;;;7.22;100.00
17383;BME280;8809;51.892;8.384;2023-12-20T02:54:05;100297.81;;;7.22;100.00
17383;BME280;8809;51.892;8.384;2023-12-20T02:56:33;100306.72;;;7.27;100.00
17383;BME280;8809;51.892;8.384;2023-12-20T02:59:01;100296.19;;;7.41;100.00
17383;BME280;8809;51.892;8.384;2023-12-20T03:01:29;100291.53;;;7.17;100.00
17383;BME280;8809;51.892;8.384;2023-12-20T03:03:56;100293.38;;;7.19;100.00
17383;BME280;8809;51.892;8.384;2023-12-20T03:06:23;100299.66;;;7.06;100.00
17383;BME280;8809;51.892;8.384;2023-12-20T03:08:50;100304.47;;;6.99;100.00
17383;BME280;8809;51.892;8.384;2023-12-20T03:11:17;100308.31;;;7.07;100.00
17383;BME280;8809;51.892;8.384;2023-12-20T03:13:45;100294.00;;;6.97;100.00
17383;BME280;8809;51.892;8.384;2023-12-20T03:16:13;100293.50;;;7.04;100.00
17383;BME280;8809;51.892;8.384;2023-12-20T03:18:41;100294.31;;;7.21;100.00
17383;BME280;8809;51.892;8.384;2023-12-20T03:21:11;100295.09;;;7.36;100.00
17383;BME280;8809;51.892;8.384;2023-12-20T03:23:37;100303.97;;;7.24;100.00
17383;BME280;8809;51.892;8.384;2023-12-20T03:26:06;100292.63;;;7.22;100.00
17383;BME280;8809;51.892;8.384;2023-12-20T03:28:34;100304.50;;;7.17;100.00
17383;BME280;8809;51.892;8.384;2023-12-20T03:31:03;100295.47;;;7.26;100.00
17383;BME280;8809;51.892;8.384;2023-12-20T03:33:29;100293.06;;;7.31;100.00
17383;BME280;8809;51.892;8.384;2023-12-20T03:35:56;100303.31;;;7.28;100.00
17383;BME280;8809;51.892;8.384;2023-12-20T03:38:23;100300.72;;;7.28;100.00
17383;BME280;8809;51.892;8.384;2023-12-20T03:40:50;100300.06;;;7.32;100.00
17383;BME280;8809;51.892;8.384;2023-12-20T03:43:17;100293.97;;;7.31;100.00
17383;BME280;8809;51.892;8.384;2023-12-20T03:45:44;100311.91;;;7.27;100.00
17383;BME280;8809;51.892;8.384;2023-12-20T03:48:13;100296.59;;;7.49;100.00
17383;BME280;8809;51.892;8.384;2023-12-20T03:50:40;100297.91;;;7.41;100.00
17383;BME280;8809;51.892;8.384;2023-12-20T03:53:07;100294.41;;;7.40;100.00
17383;BME280;8809;51.892;8.384;2023-12-20T03:55:34;100277.03;;;7.38;100.00
17383;BME280;8809;51.892;8.384;2023-12-20T03:58:01;100280.59;;;7.40;100.00
17383;BME280;8809;51.892;8.384;2023-12-20T04:00:27;100285.38;;;7.32;100.00
17383;BME280;8809;51.892;8.384;2023-12-20T04:02:54;100288.41;;;7.24;100.00
17383;BME280;8809;51.892;8.384;2023-12-20T04:05:23;100280.53;;;7.22;100.00
17383;BME280;8809;51.892;8.384;2023-12-20T04:07:49;100282.41;;;7.25;100.00
17383;BME280;8809;51.892;8.384;2023-12-20T04:10:17;100284.47;;;7.32;100.00
17383;BME280;8809;51.892;8.384;2023-12-20T04:12:44;100276.56;;;7.29;100.00
17383;BME280;8809;51.892;8.384;2023-12-20T04:15:18;100271.75;;;7.19;100.00
17383;BME280;8809;51.892;8.384;2023-12-20T04:17:45;100270.25;;;7.24;100.00
17383;BME280;8809;51.892;8.384;2023-12-20T04:20:12;100268.03;;;7.31;100.00
17383;BME280;8809;51.892;8.384;2023-12-20T04:22:40;100269.16;;;7.36;100.00
17383;BME280;8809;51.892;8.384;2023-12-20T04:25:08;100268.47;;;7.40;100.00
17383;BME280;8809;51.892;8.384;2023-12-20T04:27:35;100266.56;;;7.36;100.00
17383;BME280;8809;51.892;8.384;2023-12-20T04:30:02;100272.72;;;7.38;100.00
17383;BME280;8809;51.892;8.384;2023-12-20T04:32:29;100274.09;;;7.32;100.00
17383;BME280;8809;51.892;8.384;2023-12-20T04:34:57;100273.72;;;7.24;100.00
17383;BME280;8809;51.892;8.384;2023-12-20T04:37:24;100276.31;;;7.24;100.00
17383;BME280;8809;51.892;8.384;2023-12-20T04:39:52;100285.25;;;7.29;100.00
17383;BME280;8809;51.892;8.384;2023-12-20T04:42:19;100282.56;;;7.28;100.00
17383;BME280;8809;51.892;8.384;2023-12-20T04:44:46;100275.75;;;7.30;100.00
17383;BME280;8809;51.892;8.384;2023-12-20T04:47:13;100266.84;;;7.25;100.00
17383;BME280;8809;51.892;8.384;2023-12-20T04:49:39;100274.81;;;7.12;100.00
17383;BME280;8809;51.892;8.384;2023-12-20T04:52:06;100271.78;;;7.02;100.00
17383;BME280;8809;51.892;8.384;2023-12-20T04:54:33;100276.31;;;7.06;100.00
17383;BME280;8809;51.892;8.384;2023-12-20T04:57:01;100277.56;;;7.15;100.00
17383;BME280;8809;51.892;8.384;2023-12-20T04:59:28;100268.09;;;7.15;100.00
17383;BME280;8809;51.892;8.384;2023-12-20T05:01:55;100275.22;;;7.19;100.00
17383;BME280;8809;51.892;8.384;2023-12-20T05:04:23;100274.34;;;7.19;100.00
17383;BME280;8809;51.892;8.384;2023-12-20T05:06:50;100265.78;;;7.03;100.00
17383;BME280;8809;51.892;8.384;2023-12-20T05:09:17;100272.22;;;7.12;100.00
17383;BME280;8809;51.892;8.384;2023-12-20T05:11:44;100271.03;;;7.05;100.00
17383;BME280;8809;51.892;8.384;2023-12-20T05:14:12;100258.81;;;7.02;100.00
17383;BME280;8809;51.892;8.384;2023-12-20T05:16:40;100267.72;;;7.07;100.00
17383;BME280;8809;51.892;8.384;2023-12-20T05:19:08;100263.19;;;7.03;100.00
17383;BME280;8809;51.892;8.384;2023-12-20T05:21:36;100269.78;;;7.15;100.00
17383;BME280;8809;51.892;8.384;2023-12-20T05:24:05;100260.75;;;7.06;100.00
17383;BME280;8809;51.892;8.384;2023-12-20T05:26:32;100269.97;;;7.18;100.00
17383;BME280;8809;51.892;8.384;2023-12-20T05:28:59;100255.81;;;7.11;100.00
17383;BME280;8809;51.892;8.384;2023-12-20T05:31:27;100253.06;;;7.08;100.00
17383;BME280;8809;51.892;8.384;2023-12-20T05:33:53;100270.59;;;7.14;100.00
17383;BME280;8809;51.892;8.384;2023-12-20T05:36:20;100262.38;;;7.22;100.00
17383;BME280;8809;51.892;8.384;2023-12-20T05:38:47;100268.78;;;7.29;100.00
17383;BME280;8809;51.892;8.384;2023-12-20T05:41:14;100269.06;;;7.35;100.00
17383;BME280;8809;51.892;8.384;2023-12-20T05:43:43;100279.81;;;7.25;100.00
17383;BME280;8809;51.892;8.384;2023-12-20T05:46:10;100276.31;;;7.24;100.00
17383;BME280;8809;51.892;8.384;2023-12-20T05:48:40;100273.38;;;7.17;100.00
17383;BME280;8809;51.892;8.384;2023-12-20T05:51:07;100280.00;;;7.12;100.00
17383;BME280;8809;51.892;8.384;2023-12-20T05:53:34;100273.13;;;7.12;100.00
17383;BME280;8809;51.892;8.384;2023-12-20T05:56:01;100272.72;;;7.21;100.00
17383;BME280;8809;51.892;8.384;2023-12-20T05:58:28;100275.97;;;7.17;100.00
17383;BME280;8809;51.892;8.384;2023-12-20T06:00:55;100279.19;;;7.13;100.00
17383;BME280;8809;51.892;8.384;2023-12-20T06:03:22;100268.53;;;7.06;100.00
17383;BME280;8809;51.892;8.384;2023-12-20T06:05:50;100275.66;;;7.11;100.00
17383;BME280;8809;51.892;8.384;2023-12-20T06:08:18;100285.69;;;7.21;100.00
17383;BME280;8809;51.892;8.384;2023-12-20T06:10:45;100279.38;;;7.16;100.00
17383;BME280;8809;51.892;8.384;2023-12-20T06:13:12;100269.03;;;6.99;100.00
17383;BME280;8809;51.892;8.384;2023-12-20T06:15:39;100265.94;;;7.06;100.00
17383;BME280;8809;51.892;8.384;2023-12-20T06:18:07;100270.31;;;7.07;100.00
17383;BME280;8809;51.892;8.384;2023-12-20T06:20:33;100284.00;;;7.05;100.00
17383;BME280;8809;51.892;8.384;2023-12-20T06:23:02;100278.25;;;7.11;100.00
17383;BME280;8809;51.892;8.384;2023-12-20T06:25:29;100282.94;;;7.18;100.00
17383;BME280;8809;51.892;8.384;2023-12-20T06:27:56;100285.34;;;7.15;100.00
17383;BME280;8809;51.892;8.384;2023-12-20T06:30:23;100282.13;;;7.19;100.00
17383;BME280;8809;51.892;8.384;2023-12-20T06:32:51;100279.44;;;7.17;100.00
17383;BME280;8809;51.892;8.384;2023-12-20T06:35:18;100287.88;;;7.13;100.00
17383;BME280;8809;51.892;8.384;2023-12-20T06:37:45;100274.34;;;7.19;100.00
17383;BME280;8809;51.892;8.384;2023-12-20T06:40:13;100269.78;;;7.15;100.00
17383;BME280;8809;51.892;8.384;2023-12-20T06:42:41;100264.94;;;7.21;100.00
17383;BME280;8809;51.892;8.384;2023-12-20T06:45:09;100274.78;;;7.28;100.00
17383;BME280;8809;51.892;8.384;2023-12-20T06:47:37;100276.94;;;7.19;100.00
17383;BME280;8809;51.892;8.384;2023-12-20T06:50:05;100269.50;;;7.26;100.00
17383;BME280;8809;51.892;8.384;2023-12-20T06:52:34;100270.59;;;7.14;100.00
17383;BME280;8809;51.892;8.384;2023-12-20T06:55:01;100268.09;;;7.15;100.00
17383;BME280;8809;51.892;8.384;2023-12-20T06:57:29;100264.16;;;7.05;100.00
17383;BME280;8809;51.892;8.384;2023-12-20T06:59:57;100272.72;;;7.21;100.00
17383;BME280;8809;51.892;8.384;2023-12-20T07:02:24;100267.09;;;7.29;100.00
17383;BME280;8809;51.892;8.384;2023-12-20T07:04:51;100275.75;;;7.30;100.00
17383;BME280;8809;51.892;8.384;2023-12-20T07:07:18;100272.47;;;7.34;100.00
17383;BME280;8809;51.892;8.384;2023-12-20T07:09:45;100283.91;;;7.37;100.00
17383;BME280;8809;51.892;8.384;2023-12-20T07:12:12;100281.22;;;7.36;100.00
17383;BME280;8809;51.892;8.384;2023-12-20T07:14:43;100287.31;;;7.36;100.00
17383;BME280;8809;51.892;8.384;2023-12-20T07:17:10;100289.91;;;7.36;100.00
17383;BME280;8809;51.892;8.384;2023-12-20T07:19:39;100289.00;;;7.18;100.00
17383;BME280;8809;51.892;8.384;2023-12-20T07:22:06;100278.38;;;7.14;100.00
17383;BME280;8809;51.892;8.384;2023-12-20T07:24:33;100276.31;;;7.24;100.00
17383;BME280;8809;51.892;8.384;2023-12-20T07:27:01;100268.81;;;7.13;100.00
17383;BME280;8809;51.892;8.384;2023-12-20T07:29:28;100260.47;;;7.18;100.00
17383;BME280;8809;51.892;8.384;2023-12-20T07:31:56;100272.13;;;7.26;100.00
17383;BME280;8809;51.892;8.384;2023-12-20T07:34:23;100261.44;;;7.20;100.00
17383;BME280;8809;51.892;8.384;2023-12-20T07:36:50;100269.22;;;7.20;100.00
17383;BME280;8809;51.892;8.384;2023-12-20T07:39:17;100263.97;;;7.19;100.00
17383;BME280;8809;51.892;8.384;2023-12-20T07:41:45;100275.78;;;7.14;100.00
17383;BME280;8809;51.892;8.384;2023-12-20T07:44:12;100274.41;;;7.20;100.00
17383;BME280;8809;51.892;8.384;2023-12-20T07:46:39;100280.88;;;7.28;100.00
17383;BME280;8809;51.892;8.384;2023-12-20T07:49:08;100280.78;;;7.27;100.00
17383;BME280;8809;51.892;8.384;2023-12-20T07:51:35;100275.44;;;7.24;100.00
17383;BME280;8809;51.892;8.384;2023-12-20T07:54:03;100282.84;;;7.16;100.00
17383;BME280;8809;51.892;8.384;2023-12-20T07:56:30;100287.47;;;7.39;100.00
17383;BME280;8809;51.892;8.384;2023-12-20T07:58:57;100284.34;;;7.47;100.00
17383;BME280;8809;51.892;8.384;2023-12-20T08:01:24;100285.38;;;7.32;100.00
17383;BME280;8809;51.892;8.384;2023-12-20T08:03:53;100286.28;;;7.33;100.00
17383;BME280;8809;51.892;8.384;2023-12-20T08:06:21;100282.69;;;7.31;100.00
17383;BME280;8809;51.892;8.384;2023-12-20T08:08:49;100287.38;;;7.20;100.00
17383;BME280;8809;51.892;8.384;2023-12-20T08:11:17;100275.44;;;7.24;100.00
17383;BME280;8809;51.892;8.384;2023-12-20T08:13:44;100274.47;;;7.22;100.00
17383;BME280;8809;51.892;8.384;2023-12-20T08:16:12;100275.25;;;7.37;100.00
17383;BME280;8809;51.892;8.384;2023-12-20T08:18:41;100262.41;;;7.40;100.00
17383;BME280;8809;51.892;8.384;2023-12-20T08:21:08;100264.63;;;7.50;100.00
17383;BME280;8809;51.892;8.384;2023-12-20T08:23:38;100266.47;;;7.53;100.00
17383;BME280;8809;51.892;8.384;2023-12-20T08:26:05;100267.28;;;7.52;100.00
17383;BME280;8809;51.892;8.384;2023-12-20T08:28:32;100265.91;;;7.58;100.00
17383;BME280;8809;51.892;8.384;2023-12-20T08:31:00;100266.13;;;7.45;100.00
17383;BME280;8809;51.892;8.384;2023-12-20T08:33:27;100261.00;;;7.47;100.00
17383;BME280;8809;51.892;8.384;2023-12-20T08:35:54;100263.69;;;7.48;100.00
17383;BME280;8809;51.892;8.384;2023-12-20T08:38:21;100263.28;;;7.40;100.00
17383;BME280;8809;51.892;8.384;2023-12-20T08:40:50;100252.03;;;7.40;100.00
17383;BME280;8809;51.892;8.384;2023-12-20T08:43:17;100258.69;;;7.35;100.00
17383;BME280;8809;51.892;8.384;2023-12-20T08:45:45;100255.44;;;7.39;100.00
17383;BME280;8809;51.892;8.384;2023-12-20T08:48:12;100259.59;;;7.35;100.00
17383;BME280;8809;51.892;8.384;2023-12-20T08:50:39;100257.50;;;7.46;100.00
17383;BME280;8809;51.892;8.384;2023-12-20T08:53:05;100257.50;;;7.46;100.00
17383;BME280;8809;51.892;8.384;2023-12-20T08:55:32;100272.81;;;7.40;100.00
17383;BME280;8809;51.892;8.384;2023-12-20T08:58:01;100249.50;;;7.41;100.00
17383;BME280;8809;51.892;8.384;2023-12-20T09:00:27;100254.03;;;7.45;100.00
17383;BME280;8809;51.892;8.384;2023-12-20T09:02:55;100248.03;;;7.47;100.00
17383;BME280;8809;51.892;8.384;2023-12-20T09:05:22;100241.34;;;7.52;100.00
17383;BME280;8809;51.892;8.384;2023-12-20T09:07:49;100242.50;;;7.40;100.00
17383;BME280;8809;51.892;8.384;2023-12-20T09:10:16;100245.34;;;7.45;100.00
17383;BME280;8809;51.892;8.384;2023-12-20T09:12:50;100237.03;;;7.52;100.00
17383;BME280;8809;51.892;8.384;2023-12-20T09:15:21;100238.22;;;7.41;100.00
17383;BME280;8809;51.892;8.384;2023-12-20T09:17:50;100229.88;;;7.29;100.00
17383;BME280;8809;51.892;8.384;2023-12-20T09:20:18;100219.69;;;7.33;100.00
17383;BME280;8809;51.892;8.384;2023-12-20T09:22:45;100224.59;;;7.45;100.00
17383;BME280;8809;51.892;8.384;2023-12-20T09:25:12;100209.56;;;7.38;100.00
17383;BME280;8809;51.892;8.384;2023-12-20T09:27:40;100219.25;;;7.42;100.00
17383;BME280;8809;51.892;8.384;2023-12-20T09:30:07;100205.44;;;7.43;100.00
17383;BME280;8809;51.892;8.384;2023-12-20T09:32:36;100205.69;;;7.48;100.00
17383;BME280;8809;51.892;8.384;2023-12-20T09:35:02;100210.81;;;7.46;100.00
17383;BME280;8809;51.892;8.384;2023-12-20T09:37:31;100217.78;;;7.47;100.00
17383;BME280;8809;51.892;8.384;2023-12-20T09:39:58;100201.00;;;7.40;100.00
17383;BME280;8809;51.892;8.384;2023-12-20T09:42:48;100206.06;;;7.37;100.00
17383;BME280;8809;51.892;8.384;2023-12-20T09:45:20;100187.06;;;7.56;100.00
17383;BME280;8809;51.892;8.384;2023-12-20T09:47:50;100183.97;;;7.45;100.00
17383;BME280;8809;51.892;8.384;2023-12-20T09:50:21;100182.75;;;7.57;100.00
17383;BME280;8809;51.892;8.384;2023-12-20T09:52:50;100181.88;;;7.56;100.00
17383;BME280;8809;51.892;8.384;2023-12-20T09:55:18;100183.56;;;7.56;100.00
17383;BME280;8809;51.892;8.384;2023-12-20T09:57:45;100193.22;;;7.58;100.00
17383;BME280;8809;51.892;8.384;2023-12-20T10:00:14;100190.75;;;7.61;100.00
17383;BME280;8809;51.892;8.384;2023-12-20T10:02:48;100182.03;;;7.59;100.00
17383;BME280;8809;51.892;8.384;2023-12-20T10:05:18;100195.81;;;7.58;100.00
17383;BME280;8809;51.892;8.384;2023-12-20T10:07:48;100185.13;;;7.52;100.00
17383;BME280;8809;51.892;8.384;2023-12-20T10:10:15;100190.56;;;7.76;100.00
17383;BME280;8809;51.892;8.384;2023-12-20T10:13:01;100192.97;;;7.54;100.00
17383;BME280;8809;51.892;8.384;2023-12-20T10:15:28;100190.94;;;7.47;100.00
17383;BME280;8809;51.892;8.384;2023-12-20T10:17:56;100187.31;;;7.62;100.00
17383;BME280;8809;51.892;8.384;2023-12-20T10:20:25;100183.34;;;7.51;100.00
17383;BME280;8809;51.892;8.384;2023-12-20T10:22:54;100175.16;;;7.61;100.00
17383;BME280;8809;51.892;8.384;2023-12-20T10:25:22;100172.91;;;7.50;100.00
17383;BME280;8809;51.892;8.384;2023-12-20T10:27:50;100156.19;;;7.62;100.00
17383;BME280;8809;51.892;8.384;2023-12-20T10:30:17;100167.75;;;7.69;100.00
17383;BME280;8809;51.892;8.384;2023-12-20T10:32:44;100171.59;;;7.77;100.00
17383;BME280;8809;51.892;8.384;2023-12-20T10:35:11;100164.63;;;7.76;100.00
17383;BME280;8809;51.892;8.384;2023-12-20T10:37:40;100170.34;;;7.69;100.00
17383;BME280;8809;51.892;8.384;2023-12-20T10:40:08;100166.88;;;7.68;100.00
17383;BME280;8809;51.892;8.384;2023-12-20T10:42:36;100171.59;;;7.77;100.00
17383;BME280;8809;51.892;8.384;2023-12-20T10:45:05;100170.63;;;7.75;100.00
17383;BME280;8809;51.892;8.384;2023-12-20T10:47:32;100169.66;;;7.73;100.00
17383;BME280;8809;51.892;8.384;2023-12-20T10:50:00;100158.53;;;7.75;100.00
17383;BME280;8809;51.892;8.384;2023-12-20T10:52:29;100151.22;;;7.67;100.00
17383;BME280;8809;51.892;8.384;2023-12-20T10:55:01;100152.63;;;7.60;100.00
17383;BME280;8809;51.892;8.384;2023-12-20T10:57:29;100148.88;;;7.73;100.00
17383;BME280;8809;51.892;8.384;2023-12-20T11:00:01;100158.69;;;7.78;100.00
17383;BME280;8809;51.892;8.384;2023-12-20T11:02:31;100157.16;;;7.64;100.00
17383;BME280;8809;51.892;8.384;2023-12-20T11:05:05;100147.09;;;7.72;100.00
17383;BME280;8809;51.892;8.384;2023-12-20T11:07:38;100157.81;;;7.79;100.00
17383;BME280;8809;51.892;8.384;2023-12-20T11:10:16;100157.91;;;7.81;100.00
17383;BME280;8809;51.892;8.384;2023-12-20T11:12:50;100152.59;;;7.78;100.00
17383;BME280;8809;51.892;8.384;2023-12-20T11:15:19;100158.78;;;7.81;100.00
17383;BME280;8809;51.892;8.384;2023-12-20T11:17:55;100159.00;;;7.86;100.00
17383;BME280;8809;51.892;8.384;2023-12-20T11:20:35;100161.81;;;7.91;100.00
17383;BME280;8809;51.892;8.384;2023-12-20T11:23:03;100168.09;;;7.96;100.00
17383;BME280;8809;51.892;8.384;2023-12-20T11:25:46;100171.44;;;7.93;100.00
17383;BME280;8809;51.892;8.384;2023-12-20T11:28:14;100154.31;;;7.97;100.00
17383;BME280;8809;51.892;8.384;2023-12-20T11:30:47;100149.09;;;7.97;100.00
17383;BME280;8809;51.892;8.384;2023-12-20T11:33:14;100152.22;;;8.09;100.00
17383;BME280;8809;51.892;8.384;2023-12-20T11:35:42;100156.59;;;8.10;100.00
17383;BME280;8809;51.892;8.384;2023-12-20T11:38:09;100146.13;;;8.08;100.00
17383;BME280;8809;51.892;8.384;2023-12-20T11:40:38;100125.44;;;8.10;100.00
17383;BME280;8809;51.892;8.384;2023-12-20T11:43:08;100131.38;;;8.07;100.00
17383;BME280;8809;51.892;8.384;2023-12-20T11:45:35;100115.69;;;7.85;100.00
17383;BME280;8809;51.892;8.384;2023-12-20T11:48:02;100133.03;;;7.86;100.00
17383;BME280;8809;51.892;8.384;2023-12-20T11:50:32;100118.59;;;8.12;100.00
17383;BME280;8809;51.892;8.384;2023-12-20T11:52:59;100112.97;;;8.22;100.00
17383;BME280;8809;51.892;8.384;2023-12-20T11:55:26;100115.50;;;8.40;100.00
17383;BME280;8809;51.892;8.384;2023-12-20T11:57:54;100092.25;;;8.43;100.00
17383;BME280;8809;51.892;8.384;2023-12-20T12:00:22;100110.81;;;8.73;100.00
17383;BME280;8809;51.892;8.384;2023-12-20T12:02:56;100103.47;;;8.83;100.00
17383;BME280;8809;51.892;8.384;2023-12-20T12:05:23;100099.63;;;8.75;100.00
17383;BME280;8809;51.892;8.384;2023-12-20T12:07:53;100095.16;;;8.71;100.00
17383;BME280;8809;51.892;8.384;2023-12-20T12:10:20;100101.69;;;8.82;100.00
17383;BME280;8809;51.892;8.384;2023-12-20T12:12:47;100098.81;;;8.76;100.00
17383;BME280;8809;51.892;8.384;2023-12-20T12:15:16;100096.56;;;8.85;100.00
17383;BME280;8809;51.892;8.384;2023-12-20T12:17:43;100111.28;;;8.85;100.00
17383;BME280;8809;51.892;8.384;2023-12-20T12:20:10;100090.25;;;8.79;100.00
17383;BME280;8809;51.892;8.384;2023-12-20T12:22:38;100112.53;;;8.72;100.00
17383;BME280;8809;51.892;8.384;2023-12-20T12:25:12;100100.94;;;8.64;100.00
17383;BME280;8809;51.892;8.384;2023-12-20T12:27:40;100098.56;;;8.49;100.00
17383;BME280;8809;51.892;8.384;2023-12-20T12:30:09;100112.16;;;8.63;100.00
17383;BME280;8809;51.892;8.384;2023-12-20T12:32:39;100094.47;;;8.54;100.00
17383;BME280;8809;51.892;8.384;2023-12-20T12:35:09;100096.13;;;8.52;100.00
17383;BME280;8809;51.892;8.384;2023-12-20T12:37:37;100073.59;;;8.53;100.00
17383;BME280;8809;51.892;8.384;2023-12-20T12:40:06;100080.31;;;8.48;100.00
17383;BME280;8809;51.892;8.384;2023-12-20T12:42:33;100067.50;;;8.52;100.00
17383;BME280;8809;51.892;8.384;2023-12-20T12:45:01;100078.03;;;8.55;100.00
17383;BME280;8809;51.892;8.384;2023-12-20T12:47:29;100071.75;;;8.50;100.00
17383;BME280;8809;51.892;8.384;2023-12-20T12:49:57;100074.34;;;8.50;100.00
17383;BME280;8809;51.892;8.384;2023-12-20T12:52:24;100078.91;;;8.56;100.00
17383;BME280;8809;51.892;8.384;2023-12-20T12:54:52;100082.97;;;8.49;100.00
17383;BME280;8809;51.892;8.384;2023-12-20T12:57:19;100079.31;;;8.44;100.00
17383;BME280;8809;51.892;8.384;2023-12-20T12:59:46;100072.66;;;8.51;100.00
17383;BME280;8809;51.892;8.384;2023-12-20T13:02:14;100073.28;;;8.45;100.00
17383;BME280;8809;51.892;8.384;2023-12-20T13:04:41;100071.09;;;8.56;100.00